createdAt,value
2022-08-24T00:01:29.153Z,53270.47
2022-08-24T00:03:59.684Z,53270.47
2022-08-24T00:06:29.133Z,53274.47
2022-08-24T00:08:59.462Z,53284.41
2022-08-24T00:11:29.476Z,53284.41
2022-08-24T00:13:58.437Z,53278.44
2022-08-24T00:16:28.033Z,53264.53
2022-08-24T00:18:57.153Z,53256.56
2022-08-24T00:21:25.926Z,53278.44
2022-08-24T00:23:54.644Z,53270.47
2022-08-24T00:26:28.528Z,53272.47
2022-08-24T00:29:05.440Z,53304.28
2022-08-24T00:31:35.815Z,53270.47
2022-08-24T00:34:04.521Z,53256.56
2022-08-24T00:36:32.816Z,53296.31
2022-08-24T00:39:01.646Z,53300.31
2022-08-24T00:41:30.609Z,53290.38
2022-08-24T00:44:02.928Z,53308.25
2022-08-24T00:46:44.625Z,53266.50
2022-08-24T00:49:21.513Z,53286.38
2022-08-24T00:51:56.394Z,53260.53
2022-08-24T00:54:28.116Z,53280.41
2022-08-24T00:57:02.947Z,53260.53
2022-08-24T00:59:39.402Z,53302.28
2022-08-24T01:02:15.566Z,53288.38
2022-08-24T01:04:51.194Z,53276.44
2022-08-24T01:07:24.037Z,53284.41
2022-08-24T01:09:54.670Z,53272.47
2022-08-24T01:12:25.439Z,53280.41
2022-08-24T01:14:57.436Z,53292.34
2022-08-24T01:17:44.018Z,53244.63
2022-08-24T01:20:13.319Z,53268.50
2022-08-24T01:22:59.973Z,53276.44
2022-08-24T01:25:31.498Z,53268.50
2022-08-24T01:28:03.072Z,53268.50
2022-08-24T01:30:36.519Z,53276.44
2022-08-24T01:33:08.523Z,53288.38
2022-08-24T01:35:38.115Z,53304.28
2022-08-24T01:38:10.752Z,53312.22
2022-08-24T01:40:45.986Z,53290.38
2022-08-24T01:43:16.047Z,53300.31
2022-08-24T01:45:44.892Z,53300.31
2022-08-24T01:48:15.442Z,53304.28
2022-08-24T01:50:52.813Z,53294.34
2022-08-24T01:53:23.266Z,53326.16
2022-08-24T01:55:53.287Z,53324.16
2022-08-24T01:58:21.952Z,53294.34
2022-08-24T02:00:50.500Z,53320.19
2022-08-24T02:03:19.012Z,53308.25
2022-08-24T02:05:53.905Z,53340.06
2022-08-24T02:08:23.225Z,53308.25
2022-08-24T02:10:57.006Z,53326.16
2022-08-24T02:13:28.875Z,53324.16
2022-08-24T02:15:58.015Z,53292.34
2022-08-24T02:18:26.414Z,53284.41
2022-08-24T02:20:54.914Z,53316.22
2022-08-24T02:23:23.262Z,53322.16
2022-08-24T02:25:54.319Z,53304.28
2022-08-24T02:28:24.651Z,53344.03
2022-08-24T02:30:53.774Z,53300.31
2022-08-24T02:33:23.698Z,53324.16
2022-08-24T02:35:53.438Z,53290.38
2022-08-24T02:38:25.088Z,53300.31
2022-08-24T02:40:54.244Z,53344.03
2022-08-24T02:43:24.487Z,53320.19
2022-08-24T02:45:53.119Z,53322.16
2022-08-24T02:48:24.393Z,53316.22
2022-08-24T02:50:53.849Z,53328.13
2022-08-24T02:53:24.893Z,53324.16
2022-08-24T02:55:53.787Z,53348.00
2022-08-24T02:58:22.262Z,53355.97
2022-08-24T03:00:53.361Z,53324.16
2022-08-24T03:03:22.496Z,53318.19
2022-08-24T03:05:51.167Z,53340.06
2022-08-24T03:08:23.740Z,53320.19
2022-08-24T03:10:52.870Z,53342.06
2022-08-24T03:13:21.324Z,53334.09
2022-08-24T03:15:49.869Z,53304.28
2022-08-24T03:18:19.677Z,53316.22
2022-08-24T03:20:54.451Z,53326.16
2022-08-24T03:23:23.960Z,53328.13
2022-08-24T03:25:53.059Z,53322.16
2022-08-24T03:28:24.090Z,53346.03
2022-08-24T03:30:53.023Z,53348.00
2022-08-24T03:33:22.919Z,53344.03
2022-08-24T03:35:51.255Z,53340.06
2022-08-24T03:38:26.223Z,53322.16
2022-08-24T03:40:54.815Z,53350.00
2022-08-24T03:43:40.948Z,53336.09
2022-08-24T03:46:12.441Z,53355.97
2022-08-24T03:48:45.523Z,53332.09
2022-08-24T03:51:15.550Z,53371.88
2022-08-24T03:53:43.996Z,53363.91
2022-08-24T03:56:13.584Z,53357.94
2022-08-24T03:58:42.749Z,53328.13
2022-08-24T04:01:12.285Z,53369.88
2022-08-24T04:03:43.423Z,53334.09
2022-08-24T04:06:16.612Z,53367.91
2022-08-24T04:08:45.880Z,53320.19
2022-08-24T04:11:16.080Z,53332.09
2022-08-24T04:13:46.820Z,53348.00
2022-08-24T04:16:18.128Z,53348.00
2022-08-24T04:18:48.937Z,53344.03
2022-08-24T04:21:21.567Z,53371.88
2022-08-24T04:23:50.818Z,53330.13
2022-08-24T04:26:26.883Z,53350.00
2022-08-24T04:29:12.471Z,53363.91
2022-08-24T04:31:45.904Z,53340.06
2022-08-24T04:34:16.366Z,53357.94
2022-08-24T04:36:47.280Z,53377.84
2022-08-24T04:39:16.476Z,53387.78
2022-08-24T04:42:03.653Z,53344.03
2022-08-24T04:44:37.458Z,53346.03
2022-08-24T04:47:08.490Z,53344.03
2022-08-24T04:49:39.419Z,53342.06
2022-08-24T04:52:10.022Z,53379.81
2022-08-24T04:54:38.903Z,53369.88
2022-08-24T04:57:14.723Z,53375.84
2022-08-24T04:59:47.295Z,53371.88
2022-08-24T05:02:16.029Z,53367.91
2022-08-24T05:04:48.408Z,53352.00
2022-08-24T05:07:19.832Z,53342.06
2022-08-24T05:09:48.928Z,53352.00
2022-08-24T05:12:21.272Z,53383.78
2022-08-24T05:15:02.090Z,53373.84
2022-08-24T05:17:35.475Z,53336.09
2022-08-24T05:20:06.514Z,53348.00
2022-08-24T05:22:36.571Z,53367.91
2022-08-24T05:25:05.349Z,53359.94
2022-08-24T05:27:34.654Z,53389.75
2022-08-24T05:30:03.764Z,53355.97
2022-08-24T05:32:32.376Z,53352.00
2022-08-24T05:35:01.713Z,53359.94
2022-08-24T05:37:30.706Z,53367.91
2022-08-24T05:40:19.709Z,53361.94
2022-08-24T05:42:51.493Z,53365.91
2022-08-24T05:45:20.732Z,53346.03
2022-08-24T05:47:51.378Z,53334.09
2022-08-24T05:50:39.641Z,53348.00
2022-08-24T05:53:09.066Z,53340.06
2022-08-24T05:55:40.998Z,53350.00
2022-08-24T05:58:10.930Z,53361.94
2022-08-24T06:00:41.690Z,53377.84
2022-08-24T06:03:13.549Z,53328.13
2022-08-24T06:05:49.123Z,53342.06
2022-08-24T06:08:17.804Z,53383.78
2022-08-24T06:10:49.034Z,53387.78
2022-08-24T06:13:18.114Z,53379.81
2022-08-24T06:16:04.866Z,53367.91
2022-08-24T06:18:35.817Z,53375.84
2022-08-24T06:21:08.408Z,53371.88
2022-08-24T06:23:37.801Z,53363.91
2022-08-24T06:26:26.117Z,53367.91
2022-08-24T06:28:54.895Z,53367.91
2022-08-24T06:31:24.456Z,53352.00
2022-08-24T06:33:54.840Z,53352.00
2022-08-24T06:36:24.037Z,53330.13
2022-08-24T06:38:53.210Z,53340.06
2022-08-24T06:41:23.559Z,53346.03
2022-08-24T06:43:52.218Z,53326.16
2022-08-24T06:46:32.010Z,53344.03
2022-08-24T06:49:01.440Z,53300.31
2022-08-24T06:51:30.339Z,53310.25
2022-08-24T06:54:00.041Z,53338.06
2022-08-24T06:56:30.655Z,53324.16
2022-08-24T06:58:59.999Z,53308.25
2022-08-24T07:01:29.829Z,53286.38
2022-08-24T07:03:58.664Z,53308.25
2022-08-24T07:06:45.907Z,53300.31
2022-08-24T07:09:16.241Z,53270.47
2022-08-24T07:11:46.357Z,53264.53
2022-08-24T07:14:14.949Z,53260.53
2022-08-24T07:16:44.020Z,53242.66
2022-08-24T07:19:12.585Z,53260.53
2022-08-24T07:21:41.411Z,53240.66
2022-08-24T07:24:10.843Z,53278.44
2022-08-24T07:26:41.400Z,53214.81
2022-08-24T07:29:43.750Z,53204.88
2022-08-24T07:32:05.804Z,53244.63
2022-08-24T07:34:39.650Z,53246.63
2022-08-24T07:37:09.447Z,53228.75
2022-08-24T07:39:41.714Z,53185.00
2022-08-24T07:42:14.685Z,53206.88
2022-08-24T07:44:48.117Z,53228.75
2022-08-24T07:50:11.678Z,53224.75
2022-08-24T07:52:41.028Z,53212.84
2022-08-24T07:55:11.745Z,53175.06
2022-08-24T07:57:42.001Z,53208.84
2022-08-24T08:00:17.016Z,53159.16
2022-08-24T08:02:50.311Z,53188.97
2022-08-24T08:05:22.699Z,53200.91
2022-08-24T08:07:54.172Z,53200.91
2022-08-24T08:10:23.566Z,53188.97
2022-08-24T08:12:54.103Z,53185.00
2022-08-24T08:15:24.132Z,53169.09
2022-08-24T08:18:01.640Z,53157.19
2022-08-24T08:20:30.486Z,53198.91
2022-08-24T08:23:16.743Z,53161.16
2022-08-24T08:25:49.314Z,53157.19
2022-08-24T08:28:35.252Z,53190.97
2022-08-24T08:31:06.438Z,53169.09
2022-08-24T08:33:36.471Z,53175.06
2022-08-24T08:36:09.355Z,53133.31
2022-08-24T08:38:43.099Z,53181.03
2022-08-24T08:41:56.420Z,53161.16
2022-08-24T08:44:43.916Z,53151.22
2022-08-24T08:47:24.191Z,53157.19
2022-08-24T08:50:08.133Z,53169.09
2022-08-24T08:53:05.698Z,53161.16
2022-08-24T08:55:37.826Z,53141.28
2022-08-24T08:58:22.691Z,53153.19
2022-08-24T09:01:04.659Z,53127.34
2022-08-24T09:04:06.074Z,53157.19
2022-08-24T09:06:57.316Z,53153.19
2022-08-24T09:09:49.706Z,53141.28
2022-08-24T09:12:29.637Z,53177.06
2022-08-24T09:15:23.781Z,53149.22
2022-08-24T09:18:07.012Z,53181.03
2022-08-24T09:21:03.377Z,53135.31
2022-08-24T09:23:39.773Z,53141.28
2022-08-24T09:26:20.808Z,53129.34
2022-08-24T09:29:02.039Z,53153.19
2022-08-24T09:31:51.870Z,53145.25
2022-08-24T09:34:36.084Z,53133.31
2022-08-24T09:37:31.713Z,53145.25
2022-08-24T09:40:18.715Z,53137.28
2022-08-24T09:43:37.852Z,53121.41
2022-08-24T09:46:32.725Z,53147.22
2022-08-24T09:49:24.195Z,53157.19
2022-08-24T09:52:39.071Z,53145.25
2022-08-24T09:55:52.782Z,53139.28
2022-08-24T09:58:31.134Z,53121.41
2022-08-24T10:01:10.171Z,53143.25
2022-08-24T10:04:03.023Z,53141.28
2022-08-24T10:06:46.746Z,53135.31
2022-08-24T10:09:29.453Z,53143.25
2022-08-24T10:12:05.899Z,53139.28
2022-08-24T10:14:47.180Z,53137.28
2022-08-24T10:17:25.993Z,53163.13
2022-08-24T10:20:09.073Z,53129.34
2022-08-24T10:23:00.924Z,53159.16
2022-08-24T10:25:38.656Z,53149.22
2022-08-24T10:28:35.294Z,53141.28
2022-08-24T10:31:09.722Z,53161.16
2022-08-24T10:33:56.035Z,53127.34
2022-08-24T10:36:44.237Z,53161.16
2022-08-24T10:39:41.283Z,53147.22
2022-08-24T10:42:54.464Z,53149.22
2022-08-24T10:46:00.958Z,53123.38
2022-08-24T10:48:53.096Z,53165.13
2022-08-24T10:51:36.270Z,53137.28
2022-08-24T10:54:06.800Z,53167.13
2022-08-24T10:56:44.549Z,53153.19
2022-08-24T10:59:23.815Z,53137.28
2022-08-24T11:02:12.427Z,53125.38
2022-08-24T11:04:41.951Z,53137.28
2022-08-24T11:07:18.615Z,53169.09
2022-08-24T11:09:53.411Z,53161.16
2022-08-24T11:12:29.756Z,53173.06
2022-08-24T11:15:02.111Z,53139.28
2022-08-24T11:17:34.882Z,53137.28
2022-08-24T11:20:03.805Z,53145.25
2022-08-24T11:22:37.223Z,53161.16
2022-08-24T11:25:12.065Z,53143.25
2022-08-24T11:27:46.107Z,53141.28
2022-08-24T11:30:25.605Z,53143.25
2022-08-24T11:32:57.071Z,53139.28
2022-08-24T11:35:27.987Z,53117.41
2022-08-24T11:37:59.372Z,53141.28
2022-08-24T11:40:32.269Z,53105.50
2022-08-24T11:43:37.278Z,53109.47
2022-08-24T11:46:25.863Z,53121.41
2022-08-24T11:49:04.442Z,53139.28
2022-08-24T11:51:43.738Z,53159.16
2022-08-24T11:54:24.637Z,53115.44
2022-08-24T11:57:08.598Z,53165.13
2022-08-24T11:59:49.421Z,53155.19
2022-08-24T12:02:29.476Z,53155.19
2022-08-24T12:05:06.318Z,53169.09
2022-08-24T12:07:50.876Z,53109.47
2022-08-24T12:10:32.778Z,53161.16
2022-08-24T12:13:06.624Z,53175.06
2022-08-24T12:15:44.300Z,53137.28
2022-08-24T12:18:28.315Z,53151.22
2022-08-24T12:20:58.639Z,53161.16
2022-08-24T12:23:31.349Z,53161.16
2022-08-24T12:26:10.392Z,53153.19
2022-08-24T12:28:42.422Z,53167.13
2022-08-24T12:31:18.756Z,53167.13
2022-08-24T12:33:52.413Z,53153.19
2022-08-24T12:36:29.721Z,53167.13
2022-08-24T12:39:10.266Z,53151.22
2022-08-24T12:41:49.682Z,53117.41
2022-08-24T12:44:19.952Z,53135.31
2022-08-24T12:46:54.762Z,53153.19
2022-08-24T12:49:30.615Z,53194.94
2022-08-24T12:52:27.276Z,53181.03
2022-08-24T12:55:16.852Z,53143.25
2022-08-24T12:57:55.225Z,53167.13
2022-08-24T13:00:29.253Z,53185.00
2022-08-24T13:03:01.037Z,53173.06
2022-08-24T13:05:43.271Z,53218.81
2022-08-24T13:08:16.733Z,53206.88
2022-08-24T13:10:54.777Z,53159.16
2022-08-24T13:13:43.995Z,53159.16
2022-08-24T13:16:13.233Z,53149.22
2022-08-24T13:19:20.354Z,53175.06
2022-08-24T13:21:55.180Z,53212.84
2022-08-24T13:25:01.686Z,53278.44
2022-08-24T13:27:50.803Z,53220.78
2022-08-24T13:30:28.240Z,53234.69
2022-08-24T13:33:07.679Z,53268.50
2022-08-24T13:35:56.074Z,53228.75
2022-08-24T13:38:48.890Z,53274.47
2022-08-24T13:41:34.997Z,53276.44
2022-08-24T13:44:14.240Z,53326.16
2022-08-24T13:46:53.398Z,53290.38
2022-08-24T13:49:39.126Z,53324.16
2022-08-24T13:52:22.741Z,53288.38
2022-08-24T13:55:07.742Z,53308.25
2022-08-24T13:57:43.595Z,53304.28
2022-08-24T14:00:44.254Z,53276.44
2022-08-24T14:03:34.706Z,53256.56
2022-08-24T14:06:21.403Z,53284.41
2022-08-24T14:09:01.991Z,53272.47
2022-08-24T14:11:49.627Z,53292.34
2022-08-24T14:14:27.937Z,53286.38
2022-08-24T14:17:35.626Z,53288.38
2022-08-24T14:20:11.581Z,53268.50
2022-08-24T14:22:53.323Z,53244.63
2022-08-24T14:25:24.314Z,53244.63
2022-08-24T14:28:26.647Z,53232.72
2022-08-24T14:31:28.316Z,53216.81
2022-08-24T14:34:11.801Z,53224.75
2022-08-24T14:36:56.902Z,53232.72
2022-08-24T14:39:37.627Z,53236.69
2022-08-24T14:42:17.358Z,53236.69
2022-08-24T14:45:06.567Z,53224.75
2022-08-24T14:47:47.333Z,53258.56
2022-08-24T14:50:20.619Z,53236.69
2022-08-24T14:53:01.265Z,53230.72
2022-08-24T14:55:39.600Z,53242.66
2022-08-24T14:58:19.131Z,53238.69
2022-08-24T15:01:04.797Z,53208.84
2022-08-24T15:03:51.327Z,53192.94
2022-08-24T15:06:28.389Z,53228.75
2022-08-24T15:09:12.845Z,53232.72
2022-08-24T15:11:43.642Z,53248.63
2022-08-24T15:14:24.530Z,53214.81
2022-08-24T15:17:09.633Z,53228.75
2022-08-24T15:19:50.845Z,53234.69
2022-08-24T15:22:31.035Z,53248.63
2022-08-24T15:25:06.314Z,53234.69
2022-08-24T15:27:47.191Z,53185.00
2022-08-24T15:30:27.429Z,53224.75
2022-08-24T15:33:08.807Z,53210.84
2022-08-24T15:35:41.707Z,53220.78
2022-08-24T15:38:25.543Z,53220.78
2022-08-24T15:41:06.332Z,53226.75
2022-08-24T15:43:37.777Z,53220.78
2022-08-24T15:46:07.762Z,53212.84
2022-08-24T15:48:41.622Z,53194.94
2022-08-24T15:51:10.500Z,53181.03
2022-08-24T15:53:41.928Z,53212.84
2022-08-24T15:56:36.068Z,53206.88
2022-08-24T15:59:10.830Z,53210.84
2022-08-24T16:01:57.562Z,53175.06
2022-08-24T16:04:47.986Z,53206.88
2022-08-24T16:07:25.619Z,53177.06
2022-08-24T16:10:08.657Z,53181.03
2022-08-24T16:12:38.211Z,53187.00
2022-08-24T16:15:14.238Z,53192.94
2022-08-24T16:17:50.647Z,53165.13
2022-08-24T16:20:34.487Z,53181.03
2022-08-24T16:23:06.363Z,53188.97
2022-08-24T16:25:46.902Z,53177.06
2022-08-24T16:28:36.786Z,53200.91
2022-08-24T16:31:07.375Z,53198.91
2022-08-24T16:33:43.305Z,53163.13
2022-08-24T16:36:18.000Z,53185.00
2022-08-24T16:38:49.531Z,53161.16
2022-08-24T16:41:20.798Z,53173.06
2022-08-24T16:43:50.011Z,53185.00
2022-08-24T16:46:22.905Z,53161.16
2022-08-24T16:48:54.156Z,53188.97
2022-08-24T16:51:26.080Z,53141.28
2022-08-24T16:53:54.896Z,53145.25
2022-08-24T16:56:24.011Z,53151.22
2022-08-24T16:58:53.243Z,53113.44
2022-08-24T17:01:21.851Z,53115.44
2022-08-24T17:03:50.604Z,53143.25
2022-08-24T17:06:20.998Z,53121.41
2022-08-24T17:08:51.446Z,53129.34
2022-08-24T17:11:20.817Z,53129.34
2022-08-24T17:13:50.686Z,53101.50
2022-08-24T17:16:20.852Z,53133.31
2022-08-24T17:18:49.701Z,53113.44
2022-08-24T17:21:18.705Z,53111.44
2022-08-24T17:23:47.487Z,53133.31
2022-08-24T17:26:21.578Z,53109.47
2022-08-24T17:28:54.568Z,53089.59
2022-08-24T17:31:25.503Z,53099.53
2022-08-24T17:33:54.610Z,53087.59
2022-08-24T17:36:24.605Z,53089.59
2022-08-24T17:38:56.586Z,53097.53
2022-08-24T17:41:28.878Z,53073.69
2022-08-24T17:43:59.188Z,53093.56
2022-08-24T17:46:28.529Z,53065.72
2022-08-24T17:48:58.933Z,53085.63
2022-08-24T17:51:27.900Z,53055.78
2022-08-24T17:53:56.363Z,53109.47
2022-08-24T17:56:30.368Z,53101.50
2022-08-24T17:59:16.559Z,53089.59
2022-08-24T18:01:45.340Z,53045.84
2022-08-24T18:04:14.668Z,53077.66
2022-08-24T18:06:43.408Z,53085.63
2022-08-24T18:09:18.345Z,53045.84
2022-08-24T18:11:48.819Z,53071.69
2022-08-24T18:14:18.284Z,53071.69
2022-08-24T18:16:53.986Z,53069.72
2022-08-24T18:19:24.396Z,53077.66
2022-08-24T18:21:53.357Z,53085.63
2022-08-24T18:24:22.207Z,53079.66
2022-08-24T18:26:52.931Z,53081.63
2022-08-24T18:29:23.181Z,53085.63
2022-08-24T18:31:52.667Z,53071.69
2022-08-24T18:34:22.730Z,53067.72
2022-08-24T18:36:51.360Z,53085.63
2022-08-24T18:39:21.383Z,53095.56
2022-08-24T18:41:52.466Z,53105.50
2022-08-24T18:44:24.684Z,53119.41
2022-08-24T18:46:55.153Z,53063.75
2022-08-24T18:49:23.755Z,53085.63
2022-08-24T18:51:52.623Z,53101.50
2022-08-24T18:54:24.653Z,53103.50
2022-08-24T18:56:54.605Z,53095.56
2022-08-24T18:59:23.476Z,53099.53
2022-08-24T19:02:10.655Z,53113.44
2022-08-24T19:04:43.526Z,53087.59
2022-08-24T19:07:12.529Z,53093.56
2022-08-24T19:09:41.516Z,53101.50
2022-08-24T19:12:12.414Z,53085.63
2022-08-24T19:14:46.272Z,53115.44
2022-08-24T19:17:15.855Z,53125.38
2022-08-24T19:19:47.527Z,53109.47
2022-08-24T19:22:17.605Z,53101.50
2022-08-24T19:24:47.590Z,53101.50
2022-08-24T19:27:19.286Z,53133.31
2022-08-24T19:29:56.414Z,53113.44
2022-08-24T19:32:29.327Z,53117.41
2022-08-24T19:35:00.001Z,53117.41
2022-08-24T19:37:28.881Z,53105.50
2022-08-24T19:39:58.082Z,53131.34
2022-08-24T19:42:29.650Z,53097.53
2022-08-24T19:45:29.154Z,53119.41
2022-08-24T19:47:58.326Z,53103.50
2022-08-24T19:50:28.599Z,53133.31
2022-08-24T19:53:01.658Z,53165.13
2022-08-24T19:55:30.532Z,53125.38
2022-08-24T19:58:07.198Z,53153.19
2022-08-24T20:00:39.022Z,53141.28
2022-08-24T20:03:08.788Z,53133.31
2022-08-24T20:05:38.682Z,53137.28
2022-08-24T20:08:07.198Z,53143.25
2022-08-24T20:10:36.867Z,53145.25
2022-08-24T20:13:07.336Z,53143.25
2022-08-24T20:15:36.500Z,53119.41
2022-08-24T20:18:05.411Z,53155.19
2022-08-24T20:20:34.509Z,53169.09
2022-08-24T20:23:08.250Z,53129.34
2022-08-24T20:25:40.770Z,53137.28
2022-08-24T20:28:40.807Z,53123.38
2022-08-24T20:31:00.095Z,53145.25
2022-08-24T20:33:29.010Z,53157.19
2022-08-24T20:35:58.321Z,53155.19
2022-08-24T20:38:31.980Z,53137.28
2022-08-24T20:41:01.529Z,53137.28
2022-08-24T20:43:31.735Z,53145.25
2022-08-24T20:46:01.898Z,53145.25
2022-08-24T20:48:33.533Z,53115.44
2022-08-24T20:51:02.724Z,53165.13
2022-08-24T20:53:31.361Z,53159.16
2022-08-24T20:56:03.015Z,53155.19
2022-08-24T20:58:33.506Z,53171.09
2022-08-24T21:01:02.347Z,53157.19
2022-08-24T21:03:31.264Z,53155.19
2022-08-24T21:06:00.580Z,53169.09
2022-08-24T21:08:29.745Z,53143.25
2022-08-24T21:10:58.870Z,53165.13
2022-08-24T21:13:29.827Z,53133.31
2022-08-24T21:16:00.956Z,53135.31
2022-08-24T21:18:29.879Z,53141.28
2022-08-24T21:21:03.969Z,53157.19
2022-08-24T21:23:34.063Z,53153.19
2022-08-24T21:26:04.427Z,53153.19
2022-08-24T21:28:33.684Z,53173.06
2022-08-24T21:31:06.524Z,53169.09
2022-08-24T21:33:54.049Z,53179.03
2022-08-24T21:36:24.669Z,53137.28
2022-08-24T21:38:53.600Z,53185.00
2022-08-24T21:41:23.264Z,53169.09
2022-08-24T21:43:52.380Z,53187.00
2022-08-24T21:46:26.286Z,53183.00
2022-08-24T21:48:55.175Z,53181.03
2022-08-24T21:51:24.252Z,53194.94
2022-08-24T21:53:54.883Z,53200.91
2022-08-24T21:56:32.631Z,53165.13
2022-08-24T21:59:03.564Z,53155.19
2022-08-24T22:01:33.665Z,53181.03
2022-08-24T22:04:02.427Z,53175.06
2022-08-24T22:06:31.993Z,53167.13
2022-08-24T22:09:02.003Z,53181.03
2022-08-24T22:11:31.176Z,53179.03
2022-08-24T22:14:00.276Z,53194.94
2022-08-24T22:16:29.340Z,53216.81
2022-08-24T22:18:59.594Z,53192.94
2022-08-24T22:21:31.611Z,53194.94
2022-08-24T22:24:05.309Z,53200.91
2022-08-24T22:26:36.333Z,53198.91
2022-08-24T22:29:07.285Z,53208.84
2022-08-24T22:31:38.222Z,53226.75
2022-08-24T22:34:10.572Z,53183.00
2022-08-24T22:36:40.023Z,53200.91
2022-08-24T22:39:11.013Z,53202.91
2022-08-24T22:41:40.590Z,53187.00
2022-08-24T22:44:22.093Z,53175.06
2022-08-24T22:46:54.349Z,53204.88
2022-08-24T22:49:29.258Z,53224.75
2022-08-24T22:51:58.376Z,53194.94
2022-08-24T22:54:27.350Z,53192.94
2022-08-24T22:56:57.893Z,53208.84
2022-08-24T22:59:31.810Z,53212.84
2022-08-24T23:02:00.549Z,53218.81
2022-08-24T23:04:36.117Z,53204.88
2022-08-24T23:07:08.030Z,53202.91
2022-08-24T23:09:44.952Z,53222.78
2022-08-24T23:12:17.024Z,53206.88
2022-08-24T23:14:45.699Z,53232.72
2022-08-24T23:17:15.132Z,53210.84
2022-08-24T23:20:06.537Z,53198.91
2022-08-24T23:22:37.802Z,53240.66
2022-08-24T23:25:07.884Z,53204.88
2022-08-24T23:27:38.489Z,53220.78
2022-08-24T23:30:11.263Z,53232.72
2022-08-24T23:32:41.188Z,53226.75
2022-08-24T23:35:11.347Z,53238.69
2022-08-24T23:37:40.017Z,53248.63
2022-08-24T23:40:10.033Z,53240.66
2022-08-24T23:42:38.559Z,53226.75
2022-08-24T23:45:11.147Z,53224.75
2022-08-24T23:47:41.135Z,53236.69
2022-08-24T23:50:11.996Z,53187.00
2022-08-24T23:52:42.111Z,53198.91
2022-08-24T23:55:21.673Z,53228.75
2022-08-24T23:57:51.739Z,53240.66
